createdAt,value
2017-10-10T00:01:47.149Z,8.91
2017-10-10T00:04:14.867Z,8.83
2017-10-10T00:06:42.617Z,8.84
2017-10-10T00:09:10.402Z,8.88
2017-10-10T00:11:38.072Z,8.91
2017-10-10T00:14:05.888Z,9.00
2017-10-10T00:16:33.657Z,8.99
2017-10-10T00:19:01.387Z,8.95
2017-10-10T00:21:29.138Z,8.80
2017-10-10T00:23:56.826Z,8.82
2017-10-10T00:26:24.536Z,8.88
2017-10-10T00:28:52.305Z,8.76
2017-10-10T00:31:20.919Z,8.74
2017-10-10T00:33:48.756Z,8.72
2017-10-10T00:36:16.476Z,8.67
2017-10-10T00:38:44.223Z,8.68
2017-10-10T00:41:11.993Z,8.60
2017-10-10T00:43:39.748Z,8.55
2017-10-10T00:46:07.505Z,8.57
2017-10-10T00:48:35.253Z,8.60
2017-10-10T00:51:03.069Z,8.61
2017-10-10T00:53:30.844Z,8.62
2017-10-10T00:55:58.586Z,8.53
2017-10-10T00:58:26.369Z,8.49
2017-10-10T01:00:54.184Z,8.42
2017-10-10T01:03:21.897Z,8.46
2017-10-10T01:05:49.629Z,8.47
2017-10-10T01:08:17.325Z,8.51
2017-10-10T01:10:45.052Z,8.52
2017-10-10T01:13:12.861Z,8.46
2017-10-10T01:15:40.592Z,8.48
2017-10-10T01:18:08.363Z,8.40
2017-10-10T01:20:37.102Z,8.47
2017-10-10T01:23:04.887Z,8.43
2017-10-10T01:25:32.676Z,8.47
2017-10-10T01:28:00.524Z,8.49
2017-10-10T01:30:28.274Z,8.50
2017-10-10T01:32:56.137Z,8.50
2017-10-10T01:35:23.913Z,8.46
2017-10-10T01:37:51.766Z,8.46
2017-10-10T01:40:19.551Z,8.47
2017-10-10T01:42:47.321Z,8.48
2017-10-10T01:45:15.091Z,8.49
2017-10-10T01:47:42.759Z,8.48
2017-10-10T01:50:10.524Z,8.46
2017-10-10T01:52:38.311Z,8.45
2017-10-10T01:55:06.039Z,8.45
2017-10-10T01:57:33.784Z,8.44
2017-10-10T02:00:01.502Z,8.44
2017-10-10T02:02:29.238Z,8.43
2017-10-10T02:04:56.976Z,8.42
2017-10-10T02:07:24.820Z,8.41
2017-10-10T02:09:52.502Z,8.41
2017-10-10T02:12:20.175Z,8.40
2017-10-10T02:14:47.881Z,8.32
2017-10-10T02:17:15.539Z,8.37
2017-10-10T02:19:43.371Z,8.34
2017-10-10T02:22:11.121Z,8.44
2017-10-10T02:24:38.812Z,8.64
2017-10-10T02:27:06.525Z,8.41
2017-10-10T02:29:34.286Z,8.33
2017-10-10T02:32:02.021Z,8.28
2017-10-10T02:34:29.669Z,8.28
2017-10-10T02:36:57.437Z,8.26
2017-10-10T02:39:25.191Z,8.25
2017-10-10T02:41:52.914Z,8.26
2017-10-10T02:44:20.663Z,8.23
2017-10-10T02:46:48.453Z,8.26
2017-10-10T02:49:16.133Z,8.28
2017-10-10T02:51:43.896Z,8.27
2017-10-10T02:54:11.620Z,8.23
2017-10-10T02:56:39.281Z,8.18
2017-10-10T02:59:06.987Z,8.09
2017-10-10T03:01:34.699Z,8.10
2017-10-10T03:04:02.358Z,8.09
2017-10-10T03:06:30.374Z,7.97
2017-10-10T03:08:58.087Z,7.94
2017-10-10T03:11:25.806Z,7.83
2017-10-10T03:13:53.529Z,7.90
2017-10-10T03:16:21.255Z,8.02
2017-10-10T03:18:48.917Z,7.92
2017-10-10T03:21:16.628Z,7.74
2017-10-10T03:23:44.290Z,7.68
2017-10-10T03:26:11.985Z,7.68
2017-10-10T03:28:39.699Z,7.66
2017-10-10T03:31:07.427Z,7.63
2017-10-10T03:33:35.187Z,7.59
2017-10-10T03:36:02.895Z,7.63
2017-10-10T03:38:30.627Z,7.52
2017-10-10T03:40:58.392Z,7.45
2017-10-10T03:43:26.127Z,7.44
2017-10-10T03:45:53.863Z,7.40
2017-10-10T03:48:21.713Z,7.35
2017-10-10T03:50:49.463Z,7.42
2017-10-10T03:53:17.160Z,7.48
2017-10-10T03:55:44.886Z,7.49
2017-10-10T03:58:12.685Z,7.38
2017-10-10T04:00:40.413Z,7.30
2017-10-10T04:03:08.099Z,7.25
2017-10-10T04:05:35.867Z,7.34
2017-10-10T04:08:03.596Z,7.32
2017-10-10T04:10:31.324Z,7.36
2017-10-10T04:12:59.050Z,7.34
2017-10-10T04:15:26.742Z,7.36
2017-10-10T04:17:54.454Z,7.34
2017-10-10T04:20:22.132Z,7.38
2017-10-10T04:22:49.851Z,7.37
2017-10-10T04:25:18.937Z,7.44
2017-10-10T04:27:46.670Z,7.49
2017-10-10T04:30:14.393Z,7.43
2017-10-10T04:35:15.928Z,7.37
2017-10-10T04:37:43.599Z,7.36
2017-10-10T04:40:11.327Z,7.39
2017-10-10T04:42:39.033Z,7.45
2017-10-10T04:45:06.717Z,7.45
2017-10-10T04:47:34.584Z,7.47
2017-10-10T04:50:02.334Z,7.52
2017-10-10T04:52:30.072Z,7.55
2017-10-10T04:54:57.746Z,7.58
2017-10-10T04:57:25.512Z,7.59
2017-10-10T04:59:53.267Z,7.58
2017-10-10T05:02:21.109Z,7.58
2017-10-10T05:04:49.076Z,7.58
2017-10-10T05:07:16.820Z,7.60
2017-10-10T05:09:44.559Z,7.67
2017-10-10T05:12:12.358Z,7.73
2017-10-10T05:14:40.153Z,7.56
2017-10-10T05:17:07.863Z,7.51
2017-10-10T05:19:36.525Z,7.62
2017-10-10T05:22:04.373Z,7.64
2017-10-10T05:24:32.060Z,7.65
2017-10-10T05:26:59.780Z,7.60
2017-10-10T05:29:27.555Z,7.64
2017-10-10T05:31:55.273Z,7.63
2017-10-10T05:34:23.083Z,7.63
2017-10-10T05:36:52.013Z,7.63
2017-10-10T05:39:19.789Z,7.61
2017-10-10T05:41:47.511Z,7.66
2017-10-10T05:44:15.256Z,7.60
2017-10-10T05:46:42.974Z,7.67
2017-10-10T05:49:10.705Z,7.70
2017-10-10T05:51:38.467Z,7.76
2017-10-10T05:54:06.174Z,7.72
2017-10-10T05:56:33.923Z,7.76
2017-10-10T05:59:01.715Z,7.77
2017-10-10T06:01:29.382Z,7.73
2017-10-10T06:03:57.189Z,7.67
2017-10-10T06:06:25.016Z,7.70
2017-10-10T06:08:52.721Z,7.79
2017-10-10T06:11:20.470Z,7.92
2017-10-10T06:13:48.278Z,7.94
2017-10-10T06:16:16.025Z,7.98
2017-10-10T06:18:43.909Z,8.03
2017-10-10T06:21:11.607Z,8.13
2017-10-10T06:23:39.321Z,8.23
2017-10-10T06:26:07.083Z,8.29
2017-10-10T06:28:34.879Z,8.32
2017-10-10T06:31:02.614Z,8.37
2017-10-10T06:33:30.388Z,8.48
2017-10-10T06:35:58.241Z,8.40
2017-10-10T06:38:26.013Z,8.39
2017-10-10T06:40:54.280Z,8.45
2017-10-10T06:43:21.983Z,8.47
2017-10-10T06:45:49.710Z,8.51
2017-10-10T06:48:17.458Z,8.61
2017-10-10T06:50:45.237Z,8.71
2017-10-10T06:53:13.002Z,8.71
2017-10-10T06:55:40.730Z,8.88
2017-10-10T06:58:09.094Z,8.99
2017-10-10T07:00:36.869Z,9.07
2017-10-10T07:03:04.631Z,9.59
2017-10-10T07:05:32.485Z,9.96
2017-10-10T07:08:00.259Z,10.16
2017-10-10T07:10:28.098Z,10.23
2017-10-10T07:12:55.825Z,10.19
2017-10-10T07:15:23.637Z,10.50
2017-10-10T07:17:51.415Z,10.67
2017-10-10T07:20:19.288Z,11.17
2017-10-10T07:22:47.088Z,11.53
2017-10-10T07:25:14.834Z,11.96
2017-10-10T07:27:42.588Z,12.20
2017-10-10T07:30:10.290Z,12.63
2017-10-10T07:32:38.060Z,13.10
2017-10-10T07:35:05.878Z,11.95
2017-10-10T07:37:33.663Z,11.85
2017-10-10T07:40:01.485Z,12.19
2017-10-10T07:42:29.476Z,12.25
2017-10-10T07:44:57.210Z,11.65
2017-10-10T07:47:25.037Z,11.42
2017-10-10T07:49:52.845Z,11.22
2017-10-10T07:52:20.637Z,11.33
2017-10-10T07:54:48.489Z,11.36
2017-10-10T07:57:16.258Z,11.87
2017-10-10T07:59:44.269Z,12.14
2017-10-10T08:02:12.082Z,12.22
2017-10-10T08:04:39.919Z,12.04
2017-10-10T08:07:07.700Z,12.05
2017-10-10T08:09:35.509Z,11.92
2017-10-10T08:12:03.332Z,11.82
2017-10-10T08:14:31.109Z,12.04
2017-10-10T08:16:58.893Z,11.72
2017-10-10T08:19:27.690Z,11.76
2017-10-10T08:21:55.451Z,11.80
2017-10-10T08:24:23.241Z,11.81
2017-10-10T08:26:50.966Z,11.99
2017-10-10T08:29:18.687Z,12.38
2017-10-10T08:31:46.516Z,12.71
2017-10-10T08:34:14.281Z,12.83
2017-10-10T08:36:41.974Z,13.77
2017-10-10T08:39:09.789Z,14.42
2017-10-10T08:41:37.648Z,14.84
2017-10-10T08:44:05.451Z,14.53
2017-10-10T08:46:33.254Z,13.79
2017-10-10T08:49:01.054Z,13.52
2017-10-10T08:51:28.804Z,12.91
2017-10-10T08:53:56.588Z,12.73
2017-10-10T08:56:24.379Z,12.53
2017-10-10T08:58:52.047Z,12.35
2017-10-10T09:01:19.919Z,13.02
2017-10-10T09:03:47.633Z,13.08
2017-10-10T09:06:15.379Z,12.91
2017-10-10T09:08:43.087Z,13.19
2017-10-10T09:11:10.957Z,13.29
2017-10-10T09:13:38.730Z,13.58
2017-10-10T09:16:06.521Z,13.50
2017-10-10T09:18:34.278Z,14.08
2017-10-10T09:21:02.536Z,13.58
2017-10-10T09:23:30.386Z,13.20
2017-10-10T09:25:58.106Z,13.39
2017-10-10T09:28:25.851Z,13.54
2017-10-10T09:30:53.525Z,13.83
2017-10-10T09:33:21.286Z,14.24
2017-10-10T09:35:49.058Z,14.42
2017-10-10T09:38:16.817Z,14.05
2017-10-10T09:40:44.539Z,13.64
2017-10-10T09:43:13.098Z,13.99
2017-10-10T09:45:40.789Z,14.03
2017-10-10T09:48:08.455Z,13.65
2017-10-10T09:50:36.189Z,14.31
2017-10-10T09:53:03.922Z,14.30
2017-10-10T09:55:31.670Z,14.43
2017-10-10T09:57:59.717Z,14.46
2017-10-10T10:00:27.408Z,14.99
2017-10-10T10:02:55.113Z,15.36
2017-10-10T10:05:22.868Z,15.64
2017-10-10T10:07:50.629Z,15.65
2017-10-10T10:10:18.439Z,15.16
2017-10-10T10:12:46.198Z,14.60
2017-10-10T10:15:13.999Z,15.12
2017-10-10T10:17:41.733Z,15.14
2017-10-10T10:20:09.553Z,15.16
2017-10-10T10:22:37.266Z,15.41
2017-10-10T10:25:05.026Z,15.45
2017-10-10T10:27:32.759Z,15.33
2017-10-10T10:30:00.507Z,14.88
2017-10-10T10:32:28.358Z,14.82
2017-10-10T10:34:56.152Z,14.58
2017-10-10T10:37:24.218Z,15.00
2017-10-10T10:39:51.979Z,15.38
2017-10-10T10:42:19.783Z,15.45
2017-10-10T10:44:47.500Z,15.42
2017-10-10T10:47:16.003Z,15.70
2017-10-10T10:49:43.737Z,15.70
2017-10-10T10:52:11.506Z,15.60
2017-10-10T10:54:39.275Z,15.52
2017-10-10T10:57:06.982Z,15.18
2017-10-10T10:59:34.807Z,15.40
2017-10-10T11:02:02.554Z,15.91
2017-10-10T11:04:30.288Z,16.02
2017-10-10T11:06:58.085Z,16.14
2017-10-10T11:09:25.852Z,16.37
2017-10-10T11:11:53.571Z,16.15
2017-10-10T11:14:21.968Z,16.42
2017-10-10T11:16:49.839Z,16.39
2017-10-10T11:19:18.537Z,16.47
2017-10-10T11:21:46.344Z,16.34
2017-10-10T11:24:14.050Z,16.40
2017-10-10T11:26:42.564Z,16.47
2017-10-10T11:29:10.392Z,16.49
2017-10-10T11:31:38.275Z,16.66
2017-10-10T11:34:05.991Z,16.47
2017-10-10T11:36:33.936Z,16.55
2017-10-10T11:39:02.810Z,16.79
2017-10-10T11:41:30.692Z,16.50
2017-10-10T11:43:58.433Z,16.50
2017-10-10T11:46:26.271Z,16.42
2017-10-10T11:48:54.202Z,16.55
2017-10-10T11:51:22.083Z,16.40
2017-10-10T11:53:49.982Z,16.68
2017-10-10T11:56:18.308Z,16.56
2017-10-10T11:58:46.088Z,16.13
2017-10-10T12:01:14.088Z,16.38
2017-10-10T12:03:41.836Z,16.33
2017-10-10T12:06:09.937Z,15.94
2017-10-10T12:08:37.642Z,15.99
2017-10-10T12:11:06.258Z,16.01
2017-10-10T12:13:34.071Z,15.83
2017-10-10T12:16:01.918Z,15.71
2017-10-10T12:18:29.693Z,15.73
2017-10-10T12:20:57.476Z,15.73
2017-10-10T12:23:25.240Z,15.52
2017-10-10T12:25:52.997Z,15.65
2017-10-10T12:28:20.786Z,15.93
2017-10-10T12:30:48.542Z,15.88
2017-10-10T12:33:16.308Z,15.56
2017-10-10T12:35:44.138Z,15.52
2017-10-10T12:38:11.927Z,15.40
2017-10-10T12:40:39.681Z,15.38
2017-10-10T12:43:07.376Z,15.26
2017-10-10T12:45:35.166Z,15.26
2017-10-10T12:48:02.879Z,15.27
2017-10-10T12:50:30.666Z,15.46
2017-10-10T12:52:58.403Z,15.41
2017-10-10T12:55:26.326Z,15.39
2017-10-10T12:57:54.082Z,15.21
2017-10-10T13:00:21.800Z,15.25
2017-10-10T13:02:49.601Z,15.53
2017-10-10T13:05:17.324Z,15.50
2017-10-10T13:07:45.135Z,15.75
2017-10-10T13:10:13.361Z,15.63
2017-10-10T13:12:41.179Z,15.55
2017-10-10T13:15:08.965Z,15.68
2017-10-10T13:17:37.407Z,15.74
2017-10-10T13:20:05.255Z,15.60
2017-10-10T13:22:33.056Z,15.61
2017-10-10T13:25:00.929Z,15.47
2017-10-10T13:27:28.697Z,15.45
2017-10-10T13:29:56.531Z,15.78
2017-10-10T13:32:24.980Z,15.59
2017-10-10T13:34:53.664Z,15.64
2017-10-10T13:37:21.442Z,15.49
2017-10-10T13:39:49.256Z,15.44
2017-10-10T13:42:18.206Z,15.32
2017-10-10T13:44:45.995Z,15.41
2017-10-10T13:47:13.766Z,15.58
2017-10-10T13:49:41.540Z,15.50
2017-10-10T13:52:09.368Z,15.57
2017-10-10T13:54:37.115Z,15.48
2017-10-10T13:57:04.966Z,15.49
2017-10-10T13:59:33.018Z,15.51
2017-10-10T14:02:01.903Z,15.61
2017-10-10T14:04:29.760Z,15.54
2017-10-10T14:06:57.566Z,15.38
2017-10-10T14:09:26.338Z,15.39
2017-10-10T14:11:54.364Z,15.36
2017-10-10T14:14:22.212Z,15.22
2017-10-10T14:16:50.349Z,15.08
2017-10-10T14:19:19.043Z,15.12
2017-10-10T14:21:46.949Z,15.14
2017-10-10T14:24:16.033Z,15.03
2017-10-10T14:26:43.833Z,15.00
2017-10-10T14:29:11.674Z,14.95
2017-10-10T14:31:39.521Z,14.89
2017-10-10T14:34:08.740Z,14.87
2017-10-10T14:36:36.849Z,14.85
2017-10-10T14:39:04.806Z,14.88
2017-10-10T14:41:32.708Z,14.87
2017-10-10T14:44:00.741Z,14.85
2017-10-10T14:46:29.346Z,14.84
2017-10-10T14:48:57.186Z,14.76
2017-10-10T14:51:26.873Z,14.66
2017-10-10T14:53:54.702Z,14.65
2017-10-10T14:56:22.456Z,14.60
2017-10-10T14:58:50.249Z,14.69
2017-10-10T15:01:18.051Z,14.58
2017-10-10T15:03:46.186Z,14.56
2017-10-10T15:06:13.977Z,14.51
2017-10-10T15:08:41.704Z,14.39
2017-10-10T15:11:09.542Z,14.39
2017-10-10T15:13:37.327Z,14.39
2017-10-10T15:16:05.176Z,14.37
2017-10-10T15:18:32.981Z,14.20
2017-10-10T15:21:00.736Z,14.26
2017-10-10T15:23:28.613Z,14.50
2017-10-10T15:25:56.323Z,14.39
2017-10-10T15:28:24.054Z,14.32
2017-10-10T15:30:51.867Z,14.46
2017-10-10T15:33:19.656Z,14.64
2017-10-10T15:35:47.441Z,14.38
2017-10-10T15:38:15.141Z,14.34
2017-10-10T15:40:42.910Z,14.22
2017-10-10T15:43:10.710Z,14.11
2017-10-10T15:45:38.541Z,13.93
2017-10-10T15:48:06.298Z,13.86
2017-10-10T15:50:34.019Z,13.84
2017-10-10T15:53:02.756Z,13.99
2017-10-10T15:55:31.062Z,13.82
2017-10-10T15:57:58.889Z,13.86
2017-10-10T16:00:26.656Z,13.96
2017-10-10T16:02:54.418Z,13.83
2017-10-10T16:05:22.167Z,13.75
2017-10-10T16:07:49.915Z,13.52
2017-10-10T16:10:18.049Z,13.42
2017-10-10T16:12:45.819Z,13.26
2017-10-10T16:15:13.871Z,13.36
2017-10-10T16:17:41.585Z,13.43
2017-10-10T16:20:09.355Z,13.42
2017-10-10T16:22:37.065Z,13.35
2017-10-10T16:25:04.852Z,13.33
2017-10-10T16:27:32.636Z,13.18
2017-10-10T16:30:00.488Z,13.29
2017-10-10T16:32:28.314Z,13.29
2017-10-10T16:34:56.177Z,13.19
2017-10-10T16:37:23.961Z,13.20
2017-10-10T16:39:51.731Z,12.95
2017-10-10T16:42:19.488Z,12.85
2017-10-10T16:44:47.277Z,13.01
2017-10-10T16:47:15.699Z,12.86
2017-10-10T16:49:43.462Z,12.92
2017-10-10T16:52:11.255Z,12.90
2017-10-10T16:54:39.780Z,12.78
2017-10-10T16:57:07.579Z,12.63
2017-10-10T16:59:35.381Z,12.64
2017-10-10T17:02:03.118Z,12.65
2017-10-10T17:04:30.924Z,12.72
2017-10-10T17:06:58.733Z,12.60
2017-10-10T17:09:26.599Z,12.41
2017-10-10T17:11:54.595Z,12.41
2017-10-10T17:14:22.372Z,12.60
2017-10-10T17:16:50.159Z,12.40
2017-10-10T17:19:18.995Z,12.34
2017-10-10T17:21:46.829Z,12.27
2017-10-10T17:24:14.713Z,12.30
2017-10-10T17:26:42.751Z,12.35
2017-10-10T17:29:10.620Z,12.31
2017-10-10T17:31:38.419Z,12.31
2017-10-10T17:34:06.418Z,12.27
2017-10-10T17:36:34.238Z,12.22
2017-10-10T17:39:02.256Z,12.16
2017-10-10T17:41:30.089Z,12.09
2017-10-10T17:43:57.881Z,12.09
2017-10-10T17:46:25.685Z,12.12
2017-10-10T17:48:53.713Z,12.10
2017-10-10T17:51:21.805Z,11.90
2017-10-10T17:53:49.660Z,11.93
2017-10-10T17:56:17.588Z,11.91
2017-10-10T17:58:46.523Z,11.86
2017-10-10T18:01:14.636Z,11.82
2017-10-10T18:03:42.550Z,11.96
2017-10-10T18:06:10.852Z,11.95
2017-10-10T18:08:38.877Z,11.86
2017-10-10T18:11:06.774Z,11.74
2017-10-10T18:13:35.157Z,11.73
2017-10-10T18:16:04.268Z,11.68
2017-10-10T18:18:32.481Z,11.75
2017-10-10T18:21:01.800Z,11.73
2017-10-10T18:23:30.843Z,11.76
2017-10-10T18:25:58.753Z,11.73
2017-10-10T18:28:26.615Z,11.75
2017-10-10T18:30:54.431Z,11.79
2017-10-10T18:33:22.198Z,11.71
2017-10-10T18:35:50.218Z,11.70
2017-10-10T18:38:18.020Z,11.61
2017-10-10T18:40:45.919Z,11.57
2017-10-10T18:43:13.828Z,11.53
2017-10-10T18:45:41.552Z,11.49
2017-10-10T18:48:09.367Z,11.49
2017-10-10T18:50:37.124Z,11.49
2017-10-10T18:53:04.949Z,11.49
2017-10-10T18:55:32.742Z,11.55
2017-10-10T18:58:00.523Z,11.57
2017-10-10T19:00:28.593Z,11.56
2017-10-10T19:02:56.633Z,11.47
2017-10-10T19:05:26.260Z,11.40
2017-10-10T19:07:54.534Z,11.49
2017-10-10T19:10:26.398Z,11.41
2017-10-10T19:12:54.590Z,11.38
2017-10-10T19:15:22.541Z,11.36
2017-10-10T19:17:51.233Z,11.33
2017-10-10T19:20:19.167Z,11.32
2017-10-10T19:22:47.097Z,11.19
2017-10-10T19:25:15.212Z,11.21
2017-10-10T19:27:43.324Z,11.31
2017-10-10T19:30:11.865Z,11.30
2017-10-10T19:32:39.947Z,11.30
2017-10-10T19:35:08.771Z,11.23
2017-10-10T19:37:37.174Z,11.15
2017-10-10T19:40:05.682Z,11.15
2017-10-10T19:42:34.820Z,11.18
2017-10-10T19:45:02.933Z,11.20
2017-10-10T19:47:31.050Z,11.26
2017-10-10T19:49:59.898Z,11.23
2017-10-10T19:52:28.805Z,11.23
2017-10-10T19:54:59.282Z,11.20
2017-10-10T19:57:28.168Z,11.13
2017-10-10T19:59:56.083Z,11.01
2017-10-10T20:02:23.909Z,11.04
2017-10-10T20:04:51.969Z,11.09
2017-10-10T20:07:20.968Z,11.02
2017-10-10T20:09:48.982Z,11.02
2017-10-10T20:12:19.688Z,11.06
2017-10-10T20:14:47.472Z,11.05
2017-10-10T20:17:15.329Z,11.14
2017-10-10T20:19:43.186Z,11.12
2017-10-10T20:22:10.945Z,11.03
2017-10-10T20:24:38.782Z,11.09
2017-10-10T20:27:07.277Z,11.04
2017-10-10T20:29:36.003Z,10.96
2017-10-10T20:32:03.936Z,10.94
2017-10-10T20:34:31.788Z,10.96
2017-10-10T20:36:59.565Z,11.00
2017-10-10T20:39:27.554Z,10.98
2017-10-10T20:41:55.491Z,10.97
2017-10-10T20:44:23.447Z,10.99
2017-10-10T20:46:51.368Z,10.96
2017-10-10T20:49:19.598Z,10.94
2017-10-10T20:51:47.458Z,10.93
2017-10-10T20:54:15.232Z,10.92
2017-10-10T20:56:42.986Z,10.80
2017-10-10T20:59:11.059Z,10.84
2017-10-10T21:01:38.855Z,10.85
2017-10-10T21:04:06.723Z,10.82
2017-10-10T21:06:34.535Z,10.79
2017-10-10T21:09:02.550Z,10.71
2017-10-10T21:11:30.475Z,10.66
2017-10-10T21:13:58.173Z,10.72
2017-10-10T21:16:26.835Z,10.68
2017-10-10T21:18:54.648Z,10.68
2017-10-10T21:21:22.380Z,10.62
2017-10-10T21:23:50.159Z,10.59
2017-10-10T21:26:17.902Z,10.65
2017-10-10T21:28:45.700Z,10.74
2017-10-10T21:31:13.418Z,10.73
2017-10-10T21:33:41.260Z,10.71
2017-10-10T21:36:09.153Z,10.73
2017-10-10T21:38:36.889Z,10.72
2017-10-10T21:41:04.665Z,10.70
2017-10-10T21:43:32.386Z,10.66
2017-10-10T21:46:00.246Z,10.68
2017-10-10T21:48:27.983Z,10.61
2017-10-10T21:50:55.754Z,10.58
2017-10-10T21:53:23.564Z,10.72
2017-10-10T21:55:51.443Z,10.56
2017-10-10T21:58:19.171Z,10.47
2017-10-10T22:00:46.982Z,10.38
2017-10-10T22:03:14.765Z,10.44
2017-10-10T22:05:43.502Z,10.41
2017-10-10T22:08:11.264Z,10.43
2017-10-10T22:10:39.020Z,10.35
2017-10-10T22:13:06.692Z,10.32
2017-10-10T22:15:34.402Z,10.28
2017-10-10T22:18:02.168Z,10.30
2017-10-10T22:20:29.989Z,10.35
2017-10-10T22:22:57.779Z,10.31
2017-10-10T22:25:25.561Z,10.35
2017-10-10T22:27:53.312Z,10.35
2017-10-10T22:30:21.032Z,10.36
2017-10-10T22:32:48.849Z,10.34
2017-10-10T22:35:16.583Z,10.33
2017-10-10T22:37:44.345Z,10.27
2017-10-10T22:40:12.217Z,10.38
2017-10-10T22:42:39.922Z,10.38
2017-10-10T22:45:07.639Z,10.32
2017-10-10T22:47:35.404Z,10.34
2017-10-10T22:50:03.084Z,10.38
2017-10-10T22:52:30.796Z,10.40
2017-10-10T22:54:58.699Z,10.43
2017-10-10T22:57:26.470Z,10.33
2017-10-10T22:59:54.272Z,10.26
2017-10-10T23:02:22.006Z,10.27
2017-10-10T23:04:49.685Z,10.26
2017-10-10T23:07:17.422Z,10.22
2017-10-10T23:09:45.147Z,10.16
2017-10-10T23:12:12.868Z,10.12
2017-10-10T23:14:40.620Z,10.10
2017-10-10T23:17:08.362Z,10.12
2017-10-10T23:19:36.058Z,10.18
2017-10-10T23:22:03.817Z,10.17
2017-10-10T23:24:31.549Z,10.19
2017-10-10T23:26:59.287Z,10.12
2017-10-10T23:29:27.059Z,10.08
2017-10-10T23:31:54.777Z,10.08
2017-10-10T23:34:22.491Z,10.09
2017-10-10T23:36:50.252Z,10.13
2017-10-10T23:39:17.960Z,10.14
2017-10-10T23:41:45.946Z,10.04
2017-10-10T23:44:13.658Z,10.16
2017-10-10T23:46:41.461Z,10.08
2017-10-10T23:49:09.132Z,10.04
2017-10-10T23:51:37.402Z,10.08
2017-10-10T23:54:05.070Z,10.02
2017-10-10T23:56:32.824Z,9.95
2017-10-10T23:59:00.550Z,9.88
